createdAt,value
2022-10-14T00:01:19.860Z,100825.03
2022-10-14T00:03:48.061Z,100823.88
2022-10-14T00:06:18.374Z,100820.09
2022-10-14T00:08:45.226Z,100817.94
2022-10-14T00:11:14.049Z,100815.53
2022-10-14T00:13:40.655Z,100815.19
2022-10-14T00:16:14.792Z,100816.19
2022-10-14T00:18:41.215Z,100817.31
2022-10-14T00:21:12.089Z,100811.09
2022-10-14T00:23:38.586Z,100810.25
2022-10-14T00:26:05.424Z,100807.63
2022-10-14T00:28:32.746Z,100804.97
2022-10-14T00:31:01.114Z,100806.59
2022-10-14T00:33:28.664Z,100808.28
2022-10-14T00:35:56.322Z,100809.44
2022-10-14T00:38:25.069Z,100806.78
2022-10-14T00:40:51.643Z,100806.63
2022-10-14T00:43:19.016Z,100807.28
2022-10-14T00:45:45.483Z,100804.84
2022-10-14T00:48:13.223Z,100808.28
2022-10-14T00:50:43.260Z,100804.84
2022-10-14T00:53:11.199Z,100805.31
2022-10-14T00:55:40.072Z,100809.75
2022-10-14T00:58:07.306Z,100803.34
2022-10-14T01:00:33.915Z,100798.75
2022-10-14T01:03:00.437Z,100794.47
2022-10-14T01:05:31.919Z,100804.84
2022-10-14T01:08:05.526Z,100802.38
2022-10-14T01:10:36.802Z,100799.41
2022-10-14T01:13:14.032Z,100791.78
2022-10-14T01:15:50.833Z,100792.16
2022-10-14T01:18:33.494Z,100796.28
2022-10-14T01:21:15.655Z,100785.94
2022-10-14T01:24:22.965Z,100788.41
2022-10-14T01:27:07.573Z,100790.53
2022-10-14T01:29:55.033Z,100782.97
2022-10-14T01:32:26.257Z,100786.25
2022-10-14T01:35:01.251Z,100788.25
2022-10-14T01:37:30.454Z,100777.72
2022-10-14T01:40:00.943Z,100773.94
2022-10-14T01:42:31.622Z,100772.47
2022-10-14T01:45:04.643Z,100776.75
2022-10-14T01:47:34.414Z,100772.28
2022-10-14T01:50:06.835Z,100768.31
2022-10-14T01:52:37.886Z,100766.22
2022-10-14T01:55:09.388Z,100771.16
2022-10-14T01:57:38.398Z,100770.47
2022-10-14T02:00:07.523Z,100762.44
2022-10-14T02:02:36.331Z,100766.06
2022-10-14T02:05:05.184Z,100765.88
2022-10-14T02:07:38.048Z,100772.94
2022-10-14T02:10:13.535Z,100765.06
2022-10-14T02:12:51.428Z,100771.50
2022-10-14T02:15:27.171Z,100764.56
2022-10-14T02:18:01.457Z,100764.22
2022-10-14T02:20:33.358Z,100767.03
2022-10-14T02:23:04.438Z,100763.41
2022-10-14T02:25:34.273Z,100760.81
2022-10-14T02:28:03.858Z,100756.97
2022-10-14T02:30:37.786Z,100757.16
2022-10-14T02:33:05.547Z,100757.78
2022-10-14T02:35:34.550Z,100756.69
2022-10-14T02:38:01.985Z,100755.84
2022-10-14T02:40:35.331Z,100752.41
2022-10-14T02:43:01.860Z,100755.19
2022-10-14T02:45:28.286Z,100752.09
2022-10-14T02:47:56.108Z,100750.75
2022-10-14T02:50:22.510Z,100748.63
2022-10-14T02:52:49.141Z,100751.06
2022-10-14T02:55:15.556Z,100746.50
2022-10-14T02:57:41.987Z,100750.13
2022-10-14T03:00:09.948Z,100743.22
2022-10-14T03:02:36.342Z,100741.09
2022-10-14T03:05:04.819Z,100741.88
2022-10-14T03:07:31.443Z,100741.06
2022-10-14T03:09:57.873Z,100747.81
2022-10-14T03:12:24.549Z,100743.38
2022-10-14T03:14:51.130Z,100750.72
2022-10-14T03:17:17.848Z,100740.44
2022-10-14T03:19:44.228Z,100743.03
2022-10-14T03:22:12.228Z,100736.31
2022-10-14T03:24:38.783Z,100740.28
2022-10-14T03:27:05.219Z,100745.94
2022-10-14T03:29:31.656Z,100732.19
2022-10-14T03:31:58.112Z,100732.03
2022-10-14T03:34:24.517Z,100734.66
2022-10-14T03:36:50.967Z,100727.69
2022-10-14T03:39:18.848Z,100722.91
2022-10-14T03:41:45.227Z,100727.69
2022-10-14T03:44:11.841Z,100735.00
2022-10-14T03:46:38.516Z,100726.81
2022-10-14T03:49:04.943Z,100723.59
2022-10-14T03:51:31.344Z,100735.31
2022-10-14T03:53:57.754Z,100732.22
2022-10-14T03:56:25.665Z,100728.06
2022-10-14T03:58:52.055Z,100723.28
2022-10-14T04:01:18.498Z,100729.41
2022-10-14T04:03:44.957Z,100724.97
2022-10-14T04:06:11.370Z,100721.19
2022-10-14T04:08:37.880Z,100727.25
2022-10-14T04:11:04.634Z,100733.19
2022-10-14T04:13:32.440Z,100729.44
2022-10-14T04:16:02.875Z,100729.69
2022-10-14T04:18:29.274Z,100729.41
2022-10-14T04:20:59.159Z,100730.69
2022-10-14T04:23:25.577Z,100724.94
2022-10-14T04:25:52.001Z,100720.56
2022-10-14T04:28:18.475Z,100723.84
2022-10-14T04:30:46.212Z,100723.16
2022-10-14T04:33:13.131Z,100724.09
2022-10-14T04:35:39.700Z,100728.88
2022-10-14T04:38:06.150Z,100730.41
2022-10-14T04:40:32.565Z,100728.56
2022-10-14T04:42:59.269Z,100721.88
2022-10-14T04:45:25.857Z,100724.34
2022-10-14T04:47:53.646Z,100720.56
2022-10-14T04:50:20.077Z,100725.16
2022-10-14T04:52:46.594Z,100718.75
2022-10-14T04:55:13.398Z,100723.84
2022-10-14T04:57:39.891Z,100724.00
2022-10-14T05:00:07.926Z,100716.53
2022-10-14T05:02:34.302Z,100712.50
2022-10-14T05:05:02.219Z,100703.97
2022-10-14T05:07:28.751Z,100708.53
2022-10-14T05:09:56.691Z,100707.41
2022-10-14T05:12:23.805Z,100692.47
2022-10-14T05:14:50.352Z,100696.22
2022-10-14T05:17:16.796Z,100696.88
2022-10-14T05:19:43.215Z,100694.59
2022-10-14T05:22:10.962Z,100694.09
2022-10-14T05:24:37.357Z,100688.19
2022-10-14T05:27:04.082Z,100689.69
2022-10-14T05:29:30.659Z,100698.22
2022-10-14T05:31:57.074Z,100701.34
2022-10-14T05:34:23.676Z,100706.41
2022-10-14T05:36:50.176Z,100713.81
2022-10-14T05:39:17.913Z,100711.19
2022-10-14T05:41:44.446Z,100713.31
2022-10-14T05:44:11.681Z,100709.03
2022-10-14T05:46:38.071Z,100713.81
2022-10-14T05:49:04.538Z,100700.16
2022-10-14T05:51:30.975Z,100704.28
2022-10-14T05:53:57.366Z,100706.91
2022-10-14T05:56:25.348Z,100706.75
2022-10-14T05:58:51.898Z,100701.66
2022-10-14T06:01:18.290Z,100701.00
2022-10-14T06:03:44.741Z,100707.25
2022-10-14T06:06:12.569Z,100707.25
2022-10-14T06:08:39.112Z,100706.72
2022-10-14T06:11:06.196Z,100711.00
2022-10-14T06:13:34.336Z,100710.50
2022-10-14T06:16:03.171Z,100709.13
2022-10-14T06:18:29.591Z,100702.78
2022-10-14T06:20:56.025Z,100704.13
2022-10-14T06:23:22.453Z,100702.28
2022-10-14T06:25:48.912Z,100697.69
2022-10-14T06:28:15.332Z,100699.28
2022-10-14T06:30:44.078Z,100703.25
2022-10-14T06:33:10.479Z,100693.41
2022-10-14T06:35:36.937Z,100692.47
2022-10-14T06:38:03.333Z,100690.75
2022-10-14T06:40:29.772Z,100695.16
2022-10-14T06:42:58.111Z,100696.81
2022-10-14T06:45:24.528Z,100691.84
2022-10-14T06:47:52.291Z,100691.22
2022-10-14T06:50:18.929Z,100695.22
2022-10-14T06:52:45.576Z,100702.09
2022-10-14T06:55:12.447Z,100698.88
2022-10-14T06:57:39.020Z,100692.00
2022-10-14T07:00:07.203Z,100696.25
2022-10-14T07:02:33.655Z,100705.53
2022-10-14T07:05:01.432Z,100694.69
2022-10-14T07:07:28.016Z,100691.53
2022-10-14T07:09:54.528Z,100701.22
2022-10-14T07:12:21.420Z,100706.34
2022-10-14T07:14:48.003Z,100704.44
2022-10-14T07:17:14.399Z,100698.56
2022-10-14T07:19:40.860Z,100699.81
2022-10-14T07:22:08.694Z,100704.28
2022-10-14T07:24:35.070Z,100697.94
2022-10-14T07:29:30.107Z,100699.91
2022-10-14T07:31:56.563Z,100698.78
2022-10-14T07:34:23.130Z,100706.38
2022-10-14T07:36:49.579Z,100703.75
2022-10-14T07:39:17.361Z,100697.38
2022-10-14T07:41:43.796Z,100706.06
2022-10-14T07:44:11.131Z,100705.91
2022-10-14T07:46:40.904Z,100704.38
2022-10-14T07:49:10.562Z,100706.91
2022-10-14T07:51:37.754Z,100703.66
2022-10-14T07:54:06.463Z,100704.50
2022-10-14T07:56:36.829Z,100713.84
2022-10-14T07:59:03.396Z,100709.16
2022-10-14T08:01:30.067Z,100707.72
2022-10-14T08:03:56.639Z,100713.66
2022-10-14T08:06:23.158Z,100707.03
2022-10-14T08:08:49.914Z,100708.22
2022-10-14T08:11:19.054Z,100708.59
2022-10-14T08:13:47.002Z,100712.13
2022-10-14T08:16:15.597Z,100710.19
2022-10-14T08:18:42.183Z,100701.91
2022-10-14T08:21:08.788Z,100693.16
2022-10-14T08:23:35.394Z,100694.34
2022-10-14T08:26:01.908Z,100689.56
2022-10-14T08:28:28.437Z,100690.31
2022-10-14T08:30:56.251Z,100686.28
2022-10-14T08:33:22.748Z,100678.53
2022-10-14T08:35:53.086Z,100684.31
2022-10-14T08:38:20.607Z,100677.03
2022-10-14T08:41:00.668Z,100676.66
2022-10-14T08:43:32.439Z,100673.19
2022-10-14T08:46:09.702Z,100669.19
2022-10-14T08:48:37.240Z,100671.81
2022-10-14T08:51:07.435Z,100666.50
2022-10-14T08:53:40.048Z,100656.94
2022-10-14T08:56:07.932Z,100666.22
2022-10-14T08:58:37.572Z,100653.19
2022-10-14T09:01:15.822Z,100661.50
2022-10-14T09:03:42.668Z,100659.84
2022-10-14T09:06:14.184Z,100655.50
2022-10-14T09:08:43.725Z,100656.03
2022-10-14T09:11:13.932Z,100656.16
2022-10-14T09:13:43.983Z,100643.56
2022-10-14T09:16:17.319Z,100649.75
2022-10-14T09:18:50.963Z,100645.44
2022-10-14T09:21:40.553Z,100653.22
2022-10-14T09:24:15.089Z,100646.06
2022-10-14T09:26:43.682Z,100646.13
2022-10-14T09:29:22.502Z,100650.00
2022-10-14T09:31:51.081Z,100655.06
2022-10-14T09:34:20.436Z,100657.28
2022-10-14T09:36:50.213Z,100652.47
2022-10-14T09:39:17.143Z,100650.88
2022-10-14T09:41:46.340Z,100650.69
2022-10-14T09:44:18.960Z,100642.13
2022-10-14T09:46:54.944Z,100650.50
2022-10-14T09:49:32.004Z,100650.38
2022-10-14T09:51:58.808Z,100651.72
2022-10-14T09:54:29.216Z,100641.31
2022-10-14T09:57:02.085Z,100644.28
2022-10-14T09:59:29.011Z,100645.06
2022-10-14T10:01:59.652Z,100641.63
2022-10-14T10:04:33.672Z,100639.72
2022-10-14T10:07:03.472Z,100630.44
2022-10-14T10:09:29.973Z,100632.41
2022-10-14T10:11:56.381Z,100619.22
2022-10-14T10:14:25.440Z,100613.72
2022-10-14T10:17:12.659Z,100610.06
2022-10-14T10:19:41.252Z,100606.69
2022-10-14T10:22:23.190Z,100598.63
2022-10-14T10:24:51.839Z,100596.78
2022-10-14T10:27:25.168Z,100600.84
2022-10-14T10:29:51.930Z,100594.31
2022-10-14T10:32:28.782Z,100593.38
2022-10-14T10:35:14.762Z,100597.94
2022-10-14T10:37:52.679Z,100582.88
2022-10-14T10:40:30.174Z,100586.03
2022-10-14T10:43:27.889Z,100578.16
2022-10-14T10:46:04.322Z,100579.16
2022-10-14T10:48:41.575Z,100572.22
2022-10-14T10:51:12.591Z,100568.81
2022-10-14T10:54:01.670Z,100556.94
2022-10-14T10:56:36.354Z,100563.00
2022-10-14T10:59:25.283Z,100553.50
2022-10-14T11:02:00.861Z,100544.19
2022-10-14T11:04:32.850Z,100553.03
2022-10-14T11:07:14.522Z,100550.97
2022-10-14T11:09:49.231Z,100546.41
2022-10-14T11:12:22.603Z,100554.81
2022-10-14T11:15:12.153Z,100551.88
2022-10-14T11:17:47.041Z,100548.97
2022-10-14T11:20:25.508Z,100551.50
2022-10-14T11:23:09.706Z,100540.88
2022-10-14T11:25:44.861Z,100529.25
2022-10-14T11:28:18.911Z,100536.81
2022-10-14T11:30:52.030Z,100529.53
2022-10-14T11:33:45.244Z,100521.41
2022-10-14T11:36:24.007Z,100525.88
2022-10-14T11:39:02.628Z,100516.72
2022-10-14T11:41:38.444Z,100516.25
2022-10-14T11:44:14.472Z,100516.03
2022-10-14T11:46:46.343Z,100518.66
2022-10-14T11:49:20.648Z,100511.56
2022-10-14T11:51:52.763Z,100514.22
2022-10-14T11:54:27.072Z,100514.34
2022-10-14T11:56:57.708Z,100508.78
2022-10-14T11:59:37.472Z,100511.75
2022-10-14T12:02:17.697Z,100506.97
2022-10-14T12:04:50.060Z,100515.72
2022-10-14T12:07:23.930Z,100506.59
2022-10-14T12:09:57.387Z,100507.50
2022-10-14T12:12:28.934Z,100507.50
2022-10-14T12:14:58.939Z,100506.66
2022-10-14T12:17:31.972Z,100506.66
2022-10-14T12:20:03.555Z,100504.13
2022-10-14T12:22:32.678Z,100499.78
2022-10-14T12:25:03.428Z,100485.25
2022-10-14T12:27:30.825Z,100487.41
2022-10-14T12:29:57.694Z,100501.53
2022-10-14T12:32:26.553Z,100476.09
2022-10-14T12:34:54.571Z,100481.09
2022-10-14T12:37:52.759Z,100482.84
2022-10-14T12:40:27.525Z,100478.59
2022-10-14T12:43:22.582Z,100482.53
2022-10-14T12:45:56.542Z,100477.94
2022-10-14T12:48:25.116Z,100465.34
2022-10-14T12:50:57.274Z,100472.19
2022-10-14T12:53:28.498Z,100470.50
2022-10-14T12:55:57.650Z,100478.09
2022-10-14T12:58:28.206Z,100472.28
2022-10-14T13:01:00.708Z,100463.94
2022-10-14T13:03:32.510Z,100465.94
2022-10-14T13:06:40.931Z,100461.44
2022-10-14T13:09:41.828Z,100452.63
2022-10-14T13:12:41.200Z,100450.91
2022-10-14T13:15:37.259Z,100449.88
2022-10-14T13:18:41.244Z,100441.47
2022-10-14T13:21:08.587Z,100429.69
2022-10-14T13:23:41.096Z,100431.16
2022-10-14T13:26:22.015Z,100423.44
2022-10-14T13:29:05.197Z,100413.31
2022-10-14T13:31:38.330Z,100413.22
2022-10-14T13:34:16.398Z,100401.59
2022-10-14T13:36:53.998Z,100412.19
2022-10-14T13:39:20.929Z,100401.34
2022-10-14T13:41:49.632Z,100395.88
2022-10-14T13:44:18.511Z,100390.75
2022-10-14T13:46:48.039Z,100397.25
2022-10-14T13:49:17.774Z,100387.81
2022-10-14T13:51:47.619Z,100380.19
2022-10-14T13:54:19.893Z,100375.22
2022-10-14T13:57:31.558Z,100372.66
2022-10-14T14:00:38.127Z,100381.63
2022-10-14T14:02:35.479Z,100369.00
2022-10-14T14:05:02.145Z,100370.88
2022-10-14T14:08:08.105Z,100368.50
2022-10-14T14:10:24.492Z,100368.72
2022-10-14T14:12:52.688Z,100369.63
2022-10-14T14:15:23.509Z,100358.66
2022-10-14T14:17:50.039Z,100359.81
2022-10-14T14:20:21.004Z,100361.88
2022-10-14T14:22:47.633Z,100360.16
2022-10-14T14:25:34.104Z,100349.41
2022-10-14T14:28:04.459Z,100346.16
2022-10-14T14:30:33.367Z,100344.00
2022-10-14T14:33:03.926Z,100348.19
2022-10-14T14:35:30.445Z,100339.97
2022-10-14T14:37:56.971Z,100330.94
2022-10-14T14:40:25.435Z,100330.91
2022-10-14T14:42:53.947Z,100319.91
2022-10-14T14:45:24.455Z,100326.13
2022-10-14T14:47:53.132Z,100315.09
2022-10-14T14:50:31.958Z,100316.53
2022-10-14T14:53:02.629Z,100316.66
2022-10-14T14:55:39.567Z,100315.81
2022-10-14T14:58:19.896Z,100317.41
2022-10-14T15:00:48.035Z,100299.03
2022-10-14T15:03:14.927Z,100311.31
2022-10-14T15:05:41.363Z,100307.75
2022-10-14T15:08:19.500Z,100309.19
2022-10-14T15:10:48.534Z,100294.44
2022-10-14T15:13:27.148Z,100293.00
2022-10-14T15:15:54.952Z,100289.38
2022-10-14T15:18:23.477Z,100291.97
2022-10-14T15:20:51.049Z,100281.59
2022-10-14T15:23:37.906Z,100278.88
2022-10-14T15:26:04.664Z,100279.88
2022-10-14T15:28:32.249Z,100278.72
2022-10-14T15:31:04.616Z,100281.25
2022-10-14T15:33:32.307Z,100278.19
2022-10-14T15:36:01.127Z,100281.97
2022-10-14T15:38:28.509Z,100272.25
2022-10-14T15:40:55.028Z,100274.91
2022-10-14T15:43:23.055Z,100278.78
2022-10-14T15:45:51.280Z,100271.34
2022-10-14T15:48:19.812Z,100283.66
2022-10-14T15:50:47.300Z,100278.63
2022-10-14T15:53:16.683Z,100266.91
2022-10-14T15:55:43.111Z,100269.41
2022-10-14T15:58:09.521Z,100265.56
2022-10-14T16:00:35.959Z,100261.94
2022-10-14T16:03:02.536Z,100260.31
2022-10-14T16:05:30.470Z,100258.97
2022-10-14T16:07:57.814Z,100250.88
2022-10-14T16:10:28.135Z,100249.78
2022-10-14T16:12:57.058Z,100247.41
2022-10-14T16:15:30.037Z,100249.97
2022-10-14T16:17:56.441Z,100242.91
2022-10-14T16:20:23.354Z,100245.47
2022-10-14T16:22:51.087Z,100241.16
2022-10-14T16:25:21.589Z,100234.88
2022-10-14T16:27:48.075Z,100237.28
2022-10-14T16:30:14.655Z,100229.16
2022-10-14T16:32:41.076Z,100234.63
2022-10-14T16:35:09.050Z,100230.31
2022-10-14T16:37:35.492Z,100233.53
2022-10-14T16:40:03.822Z,100233.06
2022-10-14T16:42:30.273Z,100237.03
2022-10-14T16:44:56.783Z,100240.69
2022-10-14T16:47:23.598Z,100236.00
2022-10-14T16:49:50.694Z,100234.13
2022-10-14T16:52:18.366Z,100231.56
2022-10-14T16:54:44.852Z,100224.91
2022-10-14T16:57:12.846Z,100226.94
2022-10-14T16:59:39.530Z,100220.25
2022-10-14T17:02:06.816Z,100220.47
2022-10-14T17:04:33.195Z,100222.84
2022-10-14T17:06:59.604Z,100215.56
2022-10-14T17:09:26.175Z,100212.53
2022-10-14T17:11:52.898Z,100213.16
2022-10-14T17:14:20.771Z,100217.50
2022-10-14T17:16:47.347Z,100218.28
2022-10-14T17:19:13.796Z,100223.88
2022-10-14T17:21:40.182Z,100218.47
2022-10-14T17:24:07.162Z,100222.59
2022-10-14T17:26:34.356Z,100222.28
2022-10-14T17:29:01.195Z,100211.97
2022-10-14T17:31:29.286Z,100210.81
2022-10-14T17:33:55.905Z,100208.47
2022-10-14T17:36:24.472Z,100215.63
2022-10-14T17:38:51.046Z,100204.72
2022-10-14T17:41:18.688Z,100213.38
2022-10-14T17:43:45.302Z,100201.47
2022-10-14T17:46:12.985Z,100199.72
2022-10-14T17:48:41.716Z,100196.16
2022-10-14T17:51:08.615Z,100200.28
2022-10-14T17:53:35.094Z,100195.44
2022-10-14T17:56:02.946Z,100199.06
2022-10-14T17:58:29.359Z,100196.09
2022-10-14T18:01:02.982Z,100182.91
2022-10-14T18:03:30.343Z,100182.56
2022-10-14T18:05:58.067Z,100183.47
2022-10-14T18:08:24.529Z,100179.00
2022-10-14T18:10:50.923Z,100177.03
2022-10-14T18:13:17.333Z,100166.66
2022-10-14T18:15:43.840Z,100165.38
2022-10-14T18:18:10.335Z,100171.09
2022-10-14T18:20:36.901Z,100165.78
2022-10-14T18:23:04.650Z,100165.50
2022-10-14T18:25:33.728Z,100157.97
2022-10-14T18:28:00.127Z,100157.22
2022-10-14T18:30:26.591Z,100152.69
2022-10-14T18:32:54.644Z,100153.69
2022-10-14T18:35:21.129Z,100160.59
2022-10-14T18:37:48.216Z,100158.59
2022-10-14T18:40:16.112Z,100165.22
2022-10-14T18:42:42.635Z,100169.69
2022-10-14T18:45:10.035Z,100161.28
2022-10-14T18:47:36.512Z,100156.88
2022-10-14T18:52:35.021Z,100148.78
2022-10-14T18:55:01.420Z,100145.84
2022-10-14T18:57:29.146Z,100148.19
2022-10-14T18:59:55.632Z,100145.28
2022-10-14T19:02:22.208Z,100137.97
2022-10-14T19:04:48.841Z,100135.41
2022-10-14T19:07:15.252Z,100131.75
2022-10-14T19:09:41.750Z,100136.88
2022-10-14T19:12:08.149Z,100137.97
2022-10-14T19:14:35.920Z,100134.03
2022-10-14T19:17:03.454Z,100128.00
2022-10-14T19:19:29.910Z,100128.34
2022-10-14T19:21:56.358Z,100138.03
2022-10-14T19:24:22.776Z,100127.91
2022-10-14T19:26:49.269Z,100117.84
2022-10-14T19:29:16.159Z,100118.31
2022-10-14T19:31:44.347Z,100117.13
2022-10-14T19:34:12.672Z,100121.25
2022-10-14T19:36:39.618Z,100123.34
2022-10-14T19:39:08.151Z,100122.41
2022-10-14T19:41:36.215Z,100117.00
2022-10-14T19:44:02.642Z,100119.09
2022-10-14T19:46:29.566Z,100122.94
2022-10-14T19:48:59.298Z,100105.78
2022-10-14T19:51:26.314Z,100109.69
2022-10-14T19:53:54.231Z,100106.81
2022-10-14T19:56:20.669Z,100109.28
2022-10-14T19:58:50.325Z,100099.69
2022-10-14T20:01:18.146Z,100094.63
2022-10-14T20:03:44.629Z,100090.47
2022-10-14T20:06:13.760Z,100093.25
2022-10-14T20:08:40.812Z,100087.94
2022-10-14T20:11:10.501Z,100080.09
2022-10-14T20:13:37.438Z,100088.69
2022-10-14T20:16:05.669Z,100086.38
2022-10-14T20:18:32.467Z,100080.66
2022-10-14T20:21:00.513Z,100076.84
2022-10-14T20:23:28.869Z,100087.91
2022-10-14T20:25:59.825Z,100081.78
2022-10-14T20:28:26.271Z,100064.31
2022-10-14T20:30:52.742Z,100059.84
2022-10-14T20:33:19.878Z,100062.44
2022-10-14T20:35:46.349Z,100058.81
2022-10-14T20:38:12.775Z,100049.00
2022-10-14T20:40:40.507Z,100057.25
2022-10-14T20:43:06.925Z,100066.75
2022-10-14T20:45:33.454Z,100058.56
2022-10-14T20:47:59.833Z,100059.09
2022-10-14T20:50:26.380Z,100062.06
2022-10-14T20:52:52.785Z,100063.47
2022-10-14T20:55:19.228Z,100054.50
2022-10-14T20:57:47.002Z,100057.88
2022-10-14T21:00:14.364Z,100057.75
2022-10-14T21:02:40.918Z,100056.25
2022-10-14T21:05:08.052Z,100051.66
2022-10-14T21:07:34.526Z,100048.06
2022-10-14T21:10:00.907Z,100046.47
2022-10-14T21:12:27.414Z,100043.16
2022-10-14T21:14:55.184Z,100058.94
2022-10-14T21:17:21.584Z,100060.09
2022-10-14T21:19:48.093Z,100044.06
2022-10-14T21:22:14.548Z,100043.97
2022-10-14T21:24:41.047Z,100040.16
2022-10-14T21:27:07.632Z,100041.28
2022-10-14T21:29:34.136Z,100038.56
2022-10-14T21:32:01.984Z,100036.91
2022-10-14T21:34:28.455Z,100021.53
2022-10-14T21:36:54.860Z,100018.75
2022-10-14T21:39:21.547Z,100022.59
2022-10-14T21:41:48.104Z,100023.41
2022-10-14T21:44:16.374Z,100022.47
2022-10-14T21:46:42.814Z,100023.63
2022-10-14T21:49:10.967Z,100029.66
2022-10-14T21:51:37.974Z,100038.84
2022-10-14T21:54:05.148Z,100032.63
2022-10-14T21:56:32.113Z,100031.75
2022-10-14T21:58:58.959Z,100027.53
2022-10-14T22:01:27.260Z,100016.13
2022-10-14T22:03:55.319Z,100017.63
2022-10-14T22:06:23.430Z,100013.81
2022-10-14T22:08:52.102Z,100011.47
2022-10-14T22:11:21.174Z,100013.09
2022-10-14T22:13:48.751Z,100011.22
2022-10-14T22:16:15.877Z,100008.78
2022-10-14T22:18:42.465Z,100017.63
2022-10-14T22:21:09.259Z,100013.28
2022-10-14T22:23:37.090Z,100019.78
2022-10-14T22:26:04.856Z,100019.75
2022-10-14T22:28:31.610Z,100018.47
2022-10-14T22:31:03.857Z,100015.91
2022-10-14T22:33:30.333Z,100017.41
2022-10-14T22:36:05.578Z,100014.50
2022-10-14T22:38:32.003Z,100009.72
2022-10-14T22:41:01.490Z,100010.84
2022-10-14T22:43:28.148Z,100009.88
2022-10-14T22:45:59.062Z,100007.19
2022-10-14T22:48:25.520Z,100002.84
2022-10-14T22:50:51.932Z,100008.75
2022-10-14T22:53:18.423Z,100014.69
2022-10-14T22:55:50.562Z,100012.63
2022-10-14T22:58:18.416Z,100010.69
2022-10-14T23:00:45.418Z,100011.31
2022-10-14T23:03:12.297Z,100009.81
2022-10-14T23:05:38.857Z,100015.78
2022-10-14T23:08:05.421Z,100018.00
2022-10-14T23:10:31.907Z,100015.13
2022-10-14T23:12:58.311Z,100007.78
2022-10-14T23:15:26.178Z,100018.97
2022-10-14T23:17:52.619Z,100014.91
2022-10-14T23:20:19.044Z,100005.84
2022-10-14T23:22:45.438Z,100022.41
2022-10-14T23:25:11.886Z,100021.63
2022-10-14T23:27:38.340Z,100017.94
2022-10-14T23:30:06.147Z,100012.06
2022-10-14T23:32:33.921Z,100013.16
2022-10-14T23:35:00.321Z,100012.47
2022-10-14T23:37:26.709Z,100008.28
2022-10-14T23:39:53.124Z,100016.66
2022-10-14T23:42:19.525Z,100020.72
2022-10-14T23:44:46.025Z,100023.44
2022-10-14T23:47:12.426Z,100032.31
2022-10-14T23:49:40.187Z,100027.13
2022-10-14T23:52:06.588Z,100026.69
2022-10-14T23:54:33.003Z,100015.97
2022-10-14T23:56:59.389Z,100018.75
2022-10-14T23:59:25.910Z,100023.22
